This is the latest recevied weather packets stored in our database for station/object TF3VP-10. If no packets are shown the sender has not sent any weather packets the latest 10 day(s).
| Time | Temp. | Humidity | Pressure | Rain* | Wind** | Luminosity | Snow |
|---|---|---|---|---|---|---|---|
| 1777937747 | 0.56° C | 53% | 1039.2 hPa | - | - | - | - |
| 1777936847 | 0.56° C | 52% | 1039.3 hPa | - | - | - | - |
| 1777935947 | 0.56° C | 55% | 1039.2 hPa | - | - | - | - |
| 1777935048 | 1.11° C | 55% | 1039.1 hPa | - | - | - | - |
| 1777934147 | 1.11° C | 56% | 1039 hPa | - | - | - | - |
| 1777933247 | 1.11° C | 52% | 1038.9 hPa | - | - | - | - |
| 1777932348 | 1.67° C | 53% | 1038.7 hPa | - | - | - | - |
| 1777931447 | 1.67° C | 49% | 1038.6 hPa | - | - | - | - |
| 1777930547 | 1.67° C | 45% | 1038.5 hPa | - | - | - | - |
| 1777929647 | 2.22° C | 45% | 1038.7 hPa | - | - | - | - |
| 1777928747 | 2.22° C | 44% | 1038.5 hPa | - | - | - | - |
| 1777927847 | 2.22° C | 44% | 1038.5 hPa | - | - | - | - |
| 1777926947 | 3.89° C | 54% | 1025.8 hPa | - | - | - | - |
| 1777926047 | 3.89° C | 54% | 1025.8 hPa | - | - | - | - |
| 1777925147 | 3.89° C | 54% | 1025.8 hPa | - | - | - | - |
| 1777924247 | 3.89° C | 54% | 1025.8 hPa | - | - | - | - |
| 1777923347 | 3.89° C | 54% | 1025.8 hPa | - | - | - | - |
| 1777922447 | 3.89° C | 54% | 1025.8 hPa | - | - | - | - |
| 1777921547 | 3.89° C | 54% | 1025.8 hPa | - | - | - | - |
| 1777920647 | 3.89° C | 54% | 1025.8 hPa | - | - | - | - |
| 1777919747 | 3.89° C | 54% | 1025.8 hPa | - | - | - | - |
| 1777918847 | 3.89° C | 54% | 1025.8 hPa | - | - | - | - |
| 1777917947 | 3.89° C | 54% | 1025.8 hPa | - | - | - | - |
| 1777917047 | 3.89° C | 54% | 1025.8 hPa | - | - | - | - |
| 1777916147 | 3.89° C | 54% | 1025.8 hPa | - | - | - | - |
* Rain since midnight (hover to see other rain measurements)
** Current wind speed in m/s (hover to see current wind gust speed)